Time;durP1;ratioP1;P1;durP2;ratioP2;P2;SDS_P1;SDS_P2;PMS_P1;PMS_P2;Temp;Humidity;BMP_temperature;BMP_pressure;BME280_temperature;BME280_humidity;BME280_pressure;Samples;Min_cycle;Max_cycle;Signal;HPM_P1;HPM_P2
2023/03/31 00:02:21;;;;;;;13.52;3.80;;;7.90;99.90;;;;;;5072046;28;20071;-88
2023/03/31 00:04:58;;;;;;;20.85;3.85;;;7.90;99.90;;;;;;5072257;28;20081;-88
2023/03/31 00:07:24;;;;;;;17.88;3.67;;;7.80;99.90;;;;;;5072698;28;20112;-88
2023/03/31 00:09:53;;;;;;;14.00;4.00;;;7.70;99.90;;;;;;5055590;28;21170;-89
2023/03/31 00:12:20;;;;;;;19.70;3.72;;;7.70;99.90;;;;;;5072014;28;20037;-88
2023/03/31 00:14:46;;;;;;;25.92;3.55;;;7.80;99.90;;;;;;5072453;28;20037;-88
2023/03/31 00:17:12;;;;;;;17.40;3.50;;;7.80;99.90;;;;;;5072630;28;20033;-89
2023/03/31 00:19:40;;;;;;;13.55;3.33;;;7.80;99.90;;;;;;5072511;28;20028;-89
2023/03/31 00:22:07;;;;;;;18.45;4.47;;;7.90;99.90;;;;;;5071766;28;20031;-89
2023/03/31 00:24:33;;;;;;;17.75;3.95;;;7.90;99.90;;;;;;5072841;28;20025;-88
2023/03/31 00:27:03;;;;;;;21.05;3.75;;;7.90;99.90;;;;;;5072377;28;20024;-89
2023/03/31 00:29:30;;;;;;;26.33;4.00;;;7.90;99.90;;;;;;5061399;28;20099;-89
2023/03/31 00:31:58;;;;;;;16.77;4.53;;;7.90;99.90;;;;;;5069519;28;20032;-89
2023/03/31 00:34:24;;;;;;;22.08;3.65;;;7.90;99.90;;;;;;5071882;28;20037;-89
2023/03/31 00:37:04;;;;;;;14.15;3.58;;;7.90;99.90;;;;;;5071877;28;20251;-89
2023/03/31 00:39:34;;;;;;;19.75;3.67;;;7.90;99.90;;;;;;5071829;28;20031;-89
2023/03/31 00:42:03;;;;;;;30.15;4.40;;;7.90;99.90;;;;;;5068494;28;20483;-88
2023/03/31 00:44:32;;;;;;;18.80;4.05;;;7.90;99.90;;;;;;5072318;28;20031;-89
2023/03/31 00:47:11;;;;;;;14.70;4.00;;;7.90;99.90;;;;;;5072359;28;20025;-89
2023/03/31 00:49:50;;;;;;;20.25;3.72;;;8.00;99.90;;;;;;5055567;28;20437;-88
2023/03/31 00:52:31;;;;;;;18.90;3.58;;;8.10;99.90;;;;;;5072549;28;20387;-89
2023/03/31 00:55:09;;;;;;;10.57;4.60;;;8.20;99.90;;;;;;5056519;28;20025;-89
2023/03/31 00:57:38;;;;;;;14.90;3.50;;;8.20;99.90;;;;;;5054943;28;20051;-89
2023/03/31 01:00:14;;;;;;;15.82;5.00;;;8.10;99.90;;;;;;5071746;28;20039;-89
2023/03/31 01:02:51;;;;;;;16.65;3.75;;;8.10;99.90;;;;;;5054829;28;20124;-89
2023/03/31 01:05:38;;;;;;;19.08;3.75;;;8.00;99.90;;;;;;5072341;28;20055;-89
2023/03/31 01:08:05;;;;;;;16.25;3.92;;;8.10;99.90;;;;;;5068701;28;20032;-88
2023/03/31 01:10:40;;;;;;;21.48;3.50;;;8.00;99.90;;;;;;5071706;28;20032;-88
2023/03/31 01:13:09;;;;;;;10.65;2.88;;;8.00;99.90;;;;;;5080839;28;20398;-89
2023/03/31 01:15:35;;;;;;;16.02;3.67;;;8.00;99.90;;;;;;5077789;28;20028;-89
2023/03/31 01:18:02;;;;;;;12.80;3.63;;;8.00;99.90;;;;;;5075886;28;20419;-88
2023/03/31 01:20:43;;;;;;;14.70;3.97;;;8.00;99.90;;;;;;5058580;28;20027;-88
2023/03/31 01:23:48;;;;;;;18.77;3.90;;;8.00;99.90;;;;;;5075418;28;20029;-88
2023/03/31 01:26:45;;;;;;;18.38;3.55;;;8.10;99.90;;;;;;5034599;28;20283;-89
2023/03/31 01:29:35;;;;;;;13.93;3.67;;;8.10;99.90;;;;;;5072839;28;20025;-89
2023/03/31 01:32:39;;;;;;;17.30;3.75;;;8.10;99.90;;;;;;5058779;28;20041;-88
2023/03/31 01:35:49;;;;;;;14.55;2.83;;;8.10;99.90;;;;;;5074899;28;20400;-88
2023/03/31 01:39:02;;;;;;;16.15;4.70;;;8.10;99.90;;;;;;5075593;28;20131;-89
2023/03/31 01:42:08;;;;;;;13.73;3.28;;;8.10;99.90;;;;;;5074668;28;20480;-88
2023/03/31 01:44:54;;;;;;;14.55;3.05;;;8.20;99.90;;;;;;5070999;28;20036;-89
2023/03/31 01:47:33;;;;;;;15.20;2.80;;;8.20;99.90;;;;;;5074001;28;20471;-88
2023/03/31 01:50:09;;;;;;;22.25;4.13;;;8.20;99.90;;;;;;5058040;28;20033;-88
2023/03/31 01:52:54;;;;;;;19.77;5.15;;;8.20;99.90;;;;;;5074863;28;20035;-88
2023/03/31 01:55:40;;;;;;;24.92;5.13;;;8.20;99.90;;;;;;5075072;28;20056;-88
2023/03/31 01:58:20;;;;;;;15.52;3.30;;;8.30;99.90;;;;;;5075307;28;20105;-88
2023/03/31 02:01:02;;;;;;;14.85;3.00;;;8.30;99.90;;;;;;5074849;28;20163;-87
2023/03/31 02:03:33;;;;;;;15.30;3.10;;;8.20;99.90;;;;;;5074615;28;20032;-87
2023/03/31 02:06:12;;;;;;;13.68;4.10;;;8.20;99.90;;;;;;5074223;28;20472;-87
2023/03/31 02:08:47;;;;;;;18.70;4.53;;;8.10;99.90;;;;;;5091228;28;20056;-88
2023/03/31 02:11:13;;;;;;;24.20;5.13;;;8.00;99.90;;;;;;5075945;28;20183;-87
2023/03/31 02:13:43;;;;;;;14.77;3.55;;;7.90;99.90;;;;;;5059228;28;20052;-86
2023/03/31 02:16:15;;;;;;;13.52;3.33;;;7.90;99.90;;;;;;5072412;28;20024;-86
2023/03/31 02:18:43;;;;;;;16.80;4.97;;;7.90;99.90;;;;;;5075146;28;20024;-87
2023/03/31 02:21:13;;;;;;;15.18;3.55;;;7.90;99.90;;;;;;5074193;28;20169;-89
2023/03/31 02:23:40;;;;;;;19.77;3.50;;;7.80;99.90;;;;;;5074715;28;20025;-88
2023/03/31 02:26:14;;;;;;;19.90;3.72;;;7.80;99.90;;;;;;5073697;28;20090;-88
2023/03/31 02:28:40;;;;;;;19.05;3.33;;;7.90;99.90;;;;;;5074334;28;20036;-88
2023/03/31 02:31:26;;;;;;;16.17;3.08;;;7.90;99.90;;;;;;5074273;28;20028;-88
2023/03/31 02:33:52;;;;;;;7.32;2.60;;;7.90;99.90;;;;;;5073041;28;20531;-88
2023/03/31 02:36:18;;;;;;;14.95;3.83;;;7.80;99.90;;;;;;5057422;28;20036;-88
2023/03/31 02:38:53;;;;;;;7.75;2.67;;;7.80;99.90;;;;;;5057112;28;20111;-88
2023/03/31 02:41:19;;;;;;;16.50;3.15;;;7.80;99.90;;;;;;5057446;28;20028;-88
2023/03/31 02:43:45;;;;;;;15.60;4.05;;;7.80;99.90;;;;;;5073383;28;20116;-88
2023/03/31 02:46:10;;;;;;;15.13;3.50;;;7.70;99.90;;;;;;5074220;28;20032;-88
2023/03/31 02:48:43;;;;;;;17.33;3.63;;;7.70;99.90;;;;;;5058314;28;20032;-88
2023/03/31 02:51:33;;;;;;;20.15;3.53;;;7.70;99.90;;;;;;5057599;28;20025;-88
2023/03/31 02:54:21;;;;;;;11.07;2.88;;;7.70;99.90;;;;;;5067391;28;20040;-88
2023/03/31 02:57:16;;;;;;;18.52;3.53;;;7.70;99.90;;;;;;5068017;28;20024;-88
2023/03/31 02:59:42;;;;;;;18.40;3.45;;;7.70;99.90;;;;;;5073475;28;20025;-88
2023/03/31 03:02:35;;;;;;;12.55;3.10;;;7.60;99.90;;;;;;5056753;28;20021;-88
2023/03/31 03:05:24;;;;;;;17.23;3.45;;;7.60;99.90;;;;;;5069173;28;20017;-88
2023/03/31 03:08:27;;;;;;;22.55;3.85;;;7.60;99.90;;;;;;5023759;28;20022;-88
2023/03/31 03:10:59;;;;;;;11.93;3.03;;;7.50;99.90;;;;;;5056287;28;20020;-88
2023/03/31 03:13:49;;;;;;;19.40;4.22;;;7.60;99.90;;;;;;5072982;28;20028;-87
2023/03/31 03:16:31;;;;;;;28.23;4.38;;;7.50;99.90;;;;;;5072907;28;20032;-87
2023/03/31 03:19:03;;;;;;;18.55;3.17;;;7.50;99.90;;;;;;5056360;28;20361;-88
2023/03/31 03:21:29;;;;;;;13.30;3.58;;;7.50;99.90;;;;;;5056095;28;20036;-88
2023/03/31 03:23:55;;;;;;;10.00;3.30;;;7.50;99.90;;;;;;5073404;28;20212;-88
2023/03/31 03:26:23;;;;;;;11.25;3.28;;;7.50;99.90;;;;;;5055525;28;20036;-88
2023/03/31 03:28:52;;;;;;;17.63;4.38;;;7.40;99.90;;;;;;5073225;28;20035;-88
2023/03/31 03:31:33;;;;;;;9.70;3.40;;;7.40;99.90;;;;;;5072235;28;20078;-88
2023/03/31 03:33:59;;;;;;;14.23;3.97;;;7.40;99.90;;;;;;5056231;28;20024;-88
2023/03/31 03:36:25;;;;;;;11.57;3.63;;;7.50;99.90;;;;;;5054806;28;20119;-88
2023/03/31 03:38:51;;;;;;;13.52;3.72;;;7.40;99.90;;;;;;5072431;28;20458;-88
2023/03/31 03:41:16;;;;;;;20.65;4.65;;;7.40;99.90;;;;;;5056791;28;20077;-88
2023/03/31 03:43:42;;;;;;;25.98;4.47;;;7.40;99.90;;;;;;5073062;28;20076;-88
2023/03/31 03:46:08;;;;;;;15.13;3.85;;;7.40;99.90;;;;;;5056674;28;20056;-88
2023/03/31 03:48:34;;;;;;;21.70;3.67;;;7.50;99.90;;;;;;5072881;28;20047;-88
2023/03/31 03:51:00;;;;;;;19.73;4.35;;;7.50;99.90;;;;;;5058201;28;20472;-88
2023/03/31 03:53:26;;;;;;;17.38;3.65;;;7.40;99.90;;;;;;5072419;28;20158;-88
2023/03/31 03:55:52;;;;;;;14.00;4.53;;;7.40;99.90;;;;;;5073858;28;20020;-88
2023/03/31 03:58:20;;;;;;;16.30;3.95;;;7.40;99.90;;;;;;5073241;28;20017;-88
2023/03/31 04:00:46;;;;;;;16.42;4.82;;;7.30;99.90;;;;;;5072842;28;20048;-88
2023/03/31 04:03:12;;;;;;;17.90;4.32;;;7.30;99.90;;;;;;5074305;28;20048;-87
2023/03/31 04:06:12;;;;;;;22.77;4.45;;;7.30;99.90;;;;;;5089813;28;20016;-88
2023/03/31 04:08:38;;;;;;;15.45;4.03;;;7.30;99.90;;;;;;5072520;28;20024;-88
2023/03/31 04:11:18;;;;;;;25.83;4.10;;;7.30;99.90;;;;;;5072084;28;20166;-88
2023/03/31 04:13:44;;;;;;;18.67;4.07;;;7.30;99.90;;;;;;5088964;28;20028;-88
2023/03/31 04:16:10;;;;;;;16.02;4.18;;;7.20;99.90;;;;;;5072701;28;20119;-89
2023/03/31 04:18:41;;;;;;;15.77;4.20;;;7.20;99.90;;;;;;5072759;28;20054;-89
2023/03/31 04:21:11;;;;;;;22.43;4.47;;;7.20;99.90;;;;;;5073561;28;20021;-88
2023/03/31 04:23:45;;;;;;;20.80;4.88;;;7.20;99.90;;;;;;5072926;28;20259;-87
2023/03/31 04:26:41;;;;;;;27.75;4.32;;;7.20;99.90;;;;;;5073867;28;20730;-88
2023/03/31 04:29:12;;;;;;;17.88;4.32;;;7.20;99.90;;;;;;5068244;28;20034;-88
2023/03/31 04:31:41;;;;;;;22.17;4.28;;;7.20;99.90;;;;;;5073376;28;20107;-88
2023/03/31 04:34:12;;;;;;;21.80;4.55;;;7.30;99.90;;;;;;5073251;28;20040;-89
2023/03/31 04:36:45;;;;;;;14.48;4.70;;;7.30;99.90;;;;;;5072787;28;20033;-89
2023/03/31 04:39:16;;;;;;;16.45;4.10;;;7.30;99.90;;;;;;5089633;28;20029;-88
2023/03/31 04:41:42;;;;;;;26.33;4.03;;;7.30;99.90;;;;;;5072164;28;20042;-87
2023/03/31 04:44:08;;;;;;;15.40;3.97;;;7.40;99.90;;;;;;5072740;28;20021;-89
2023/03/31 04:46:34;;;;;;;17.30;4.45;;;7.40;99.90;;;;;;5073719;28;20029;-89
2023/03/31 04:49:01;;;;;;;15.27;3.80;;;7.40;99.90;;;;;;5074496;28;20395;-89
2023/03/31 04:51:49;;;;;;;14.02;4.15;;;7.30;99.90;;;;;;5078737;28;20036;-89
2023/03/31 04:54:15;;;;;;;19.45;4.07;;;7.40;99.90;;;;;;5077026;28;20032;-89
2023/03/31 04:56:41;;;;;;;10.00;3.78;;;7.40;99.90;;;;;;5076561;28;20028;-88
2023/03/31 04:59:07;;;;;;;24.13;4.13;;;7.40;99.90;;;;;;5060224;28;20030;-83
2023/03/31 05:01:34;;;;;;;11.75;3.88;;;7.40;99.90;;;;;;5075273;28;20039;-83
2023/03/31 05:04:01;;;;;;;15.57;4.75;;;7.40;99.90;;;;;;5076421;28;20059;-83
2023/03/31 05:06:27;;;;;;;10.65;3.75;;;7.40;99.90;;;;;;5075677;28;20037;-84
2023/03/31 05:08:53;;;;;;;9.82;3.90;;;7.50;99.90;;;;;;5072484;28;20169;-85
2023/03/31 05:11:18;;;;;;;16.58;3.72;;;7.50;99.90;;;;;;5069000;28;20021;-85
2023/03/31 05:13:44;;;;;;;13.65;3.90;;;7.40;99.90;;;;;;5059248;28;20036;-85
2023/03/31 05:16:25;;;;;;;18.40;4.00;;;7.40;99.90;;;;;;5075809;28;20031;-85
2023/03/31 05:18:51;;;;;;;19.73;4.13;;;7.40;99.90;;;;;;5076406;28;20059;-85
2023/03/31 05:21:19;;;;;;;13.52;3.85;;;7.40;99.90;;;;;;5076549;28;20115;-85
2023/03/31 05:23:45;;;;;;;10.82;4.55;;;7.40;99.90;;;;;;5093417;28;20020;-85
2023/03/31 05:26:12;;;;;;;18.02;3.85;;;7.40;99.90;;;;;;5076636;28;20076;-85
2023/03/31 05:28:38;;;;;;;10.80;3.70;;;7.30;99.90;;;;;;5060430;28;20092;-85
2023/03/31 05:31:06;;;;;;;15.60;4.00;;;7.30;99.90;;;;;;5060230;28;20020;-84
2023/03/31 05:33:32;;;;;;;10.57;4.30;;;7.30;99.90;;;;;;5061782;28;20026;-83
2023/03/31 05:36:09;;;;;;;28.55;4.63;;;7.30;99.90;;;;;;5064072;28;20485;-84
2023/03/31 05:38:39;;;;;;;14.40;4.18;;;7.20;99.90;;;;;;5076364;28;20465;-84
2023/03/31 05:41:06;;;;;;;14.63;5.22;;;7.20;99.90;;;;;;5076891;28;20356;-83
2023/03/31 05:43:32;;;;;;;19.25;5.72;;;7.20;99.90;;;;;;5058594;28;20055;-84
2023/03/31 05:45:58;;;;;;;25.48;7.32;;;7.20;99.90;;;;;;5075469;28;20052;-84
2023/03/31 05:48:26;;;;;;;15.57;5.30;;;7.20;99.90;;;;;;5058220;28;20036;-84
2023/03/31 05:50:57;;;;;;;19.25;6.90;;;7.20;99.90;;;;;;5075512;28;20037;-85
2023/03/31 05:53:23;;;;;;;27.90;8.07;;;7.20;99.90;;;;;;5058506;28;20025;-84
2023/03/31 05:55:48;;;;;;;18.42;7.75;;;7.20;99.90;;;;;;5059771;28;20268;-85
2023/03/31 05:58:24;;;;;;;22.52;6.40;;;7.20;99.90;;;;;;5059086;28;20020;-84
2023/03/31 06:00:52;;;;;;;21.75;6.25;;;7.20;99.90;;;;;;5070650;28;20021;-84
2023/03/31 06:03:18;;;;;;;20.15;6.10;;;7.20;99.90;;;;;;5071216;28;20047;-85
2023/03/31 06:05:48;;;;;;;20.20;5.70;;;7.20;99.90;;;;;;5058584;28;20471;-85
2023/03/31 06:08:13;;;;;;;26.33;6.53;;;7.20;99.90;;;;;;5074762;28;20051;-85
2023/03/31 06:10:41;;;;;;;18.08;6.25;;;7.20;99.90;;;;;;5075087;28;20091;-85
2023/03/31 06:13:10;;;;;;;16.88;7.07;;;7.20;99.90;;;;;;5074325;28;20020;-84
2023/03/31 06:15:36;;;;;;;18.02;6.90;;;7.20;99.90;;;;;;5073820;28;20028;-84
2023/03/31 06:18:01;;;;;;;20.67;7.18;;;7.20;99.90;;;;;;5073300;28;20025;-84
2023/03/31 06:20:27;;;;;;;26.88;7.53;;;7.10;99.90;;;;;;5072601;28;20036;-84
2023/03/31 06:22:53;;;;;;;24.50;7.68;;;7.20;99.90;;;;;;5057555;28;20016;-85
2023/03/31 06:25:20;;;;;;;18.23;7.75;;;7.10;99.90;;;;;;5064753;28;20033;-84
2023/03/31 06:27:46;;;;;;;24.65;8.38;;;7.10;99.90;;;;;;5074337;28;20021;-84
2023/03/31 06:30:12;;;;;;;25.33;9.02;;;7.10;99.90;;;;;;5061951;28;20032;-84
2023/03/31 06:32:38;;;;;;;19.33;8.77;;;7.10;99.90;;;;;;5070109;28;20127;-85
2023/03/31 06:35:04;;;;;;;20.70;10.30;;;7.20;99.90;;;;;;5066366;28;20063;-85
2023/03/31 06:37:30;;;;;;;26.02;8.90;;;7.20;99.90;;;;;;5054845;28;20044;-85
2023/03/31 06:40:03;;;;;;;26.85;10.48;;;7.20;99.90;;;;;;5051302;28;20017;-85
2023/03/31 06:42:29;;;;;;;28.95;10.60;;;7.10;99.90;;;;;;5053575;28;20476;-85
2023/03/31 06:44:55;;;;;;;28.10;10.60;;;7.10;99.90;;;;;;5066110;28;20039;-86
2023/03/31 06:47:21;;;;;;;21.67;9.27;;;7.20;99.90;;;;;;5064843;28;20104;-86
2023/03/31 06:49:47;;;;;;;31.70;11.27;;;7.20;99.90;;;;;;5062470;28;20554;-85
2023/03/31 06:52:13;;;;;;;27.65;11.10;;;7.30;99.90;;;;;;5081005;28;20033;-86
2023/03/31 06:54:39;;;;;;;29.00;11.57;;;7.30;99.90;;;;;;5066928;28;20029;-86
2023/03/31 06:57:05;;;;;;;37.45;12.25;;;7.30;99.90;;;;;;5055064;28;20039;-85
2023/03/31 06:59:30;;;;;;;34.13;12.52;;;7.20;99.90;;;;;;5048601;28;20098;-85
2023/03/31 07:01:56;;;;;;;32.03;12.93;;;7.20;99.90;;;;;;5082919;28;20444;-87
2023/03/31 07:04:22;;;;;;;36.35;14.38;;;7.20;99.90;;;;;;5051887;28;20432;-86
2023/03/31 07:06:48;;;;;;;34.95;14.00;;;7.20;99.90;;;;;;5065448;28;20175;-87
2023/03/31 07:09:13;;;;;;;32.25;14.40;;;7.20;99.90;;;;;;5063270;28;20082;-87
2023/03/31 07:11:39;;;;;;;29.23;14.88;;;7.30;99.90;;;;;;5049200;28;20050;-86
2023/03/31 07:14:05;;;;;;;35.65;14.98;;;7.40;99.90;;;;;;5072464;28;20033;-87
2023/03/31 07:16:31;;;;;;;35.88;17.60;;;7.40;99.90;;;;;;5046764;28;20025;-86
2023/03/31 07:18:58;;;;;;;38.70;16.50;;;7.50;99.90;;;;;;5077526;28;20035;-86
2023/03/31 07:21:25;;;;;;;31.02;14.13;;;7.50;99.90;;;;;;5050567;28;20129;-85
2023/03/31 07:23:51;;;;;;;28.75;14.07;;;7.50;99.90;;;;;;5052947;28;20016;-85
2023/03/31 07:26:17;;;;;;;30.67;15.35;;;7.50;99.90;;;;;;5059081;28;20399;-85
2023/03/31 07:28:42;;;;;;;29.70;13.80;;;7.50;99.90;;;;;;5067675;28;20090;-86
2023/03/31 07:31:15;;;;;;;28.10;14.57;;;7.50;99.90;;;;;;5053153;28;20027;-86
2023/03/31 07:33:41;;;;;;;42.15;15.10;;;7.60;99.90;;;;;;5056889;28;20085;-86
2023/03/31 07:36:07;;;;;;;33.53;14.68;;;7.60;99.90;;;;;;5053498;28;20033;-86
2023/03/31 07:38:33;;;;;;;25.13;13.93;;;7.60;99.90;;;;;;5092175;28;20021;-85
2023/03/31 07:40:59;;;;;;;44.22;15.80;;;7.70;99.90;;;;;;5060636;28;20047;-86
2023/03/31 07:43:25;;;;;;;39.00;16.67;;;7.70;99.90;;;;;;5057327;28;20065;-86
2023/03/31 07:45:51;;;;;;;27.02;14.25;;;7.80;99.90;;;;;;5072033;28;20032;-86
2023/03/31 07:48:17;;;;;;;29.85;14.45;;;7.80;99.90;;;;;;5088048;28;20029;-86
2023/03/31 07:50:43;;;;;;;31.80;14.88;;;7.80;99.90;;;;;;5083321;28;20055;-86
2023/03/31 07:53:18;;;;;;;38.28;15.73;;;7.90;99.90;;;;;;5077519;28;20096;-87
2023/03/31 07:55:43;;;;;;;33.10;14.55;;;7.90;99.90;;;;;;5072692;28;20056;-86
2023/03/31 07:58:10;;;;;;;29.00;14.15;;;7.90;99.90;;;;;;5058842;28;20063;-85
2023/03/31 08:00:36;;;;;;;27.73;15.27;;;7.90;99.90;;;;;;5070586;28;20427;-86
2023/03/31 08:03:02;;;;;;;30.60;15.40;;;7.90;99.90;;;;;;5053136;28;20079;-86
2023/03/31 08:05:28;;;;;;;34.42;15.30;;;8.00;99.90;;;;;;5075924;28;20077;-85
2023/03/31 08:07:54;;;;;;;29.95;16.05;;;8.00;99.90;;;;;;5071765;28;20060;-85
2023/03/31 08:10:24;;;;;;;26.02;13.02;;;8.10;99.90;;;;;;5072633;28;20769;-85
2023/03/31 08:12:49;;;;;;;42.65;14.38;;;8.20;99.90;;;;;;5055838;28;20032;-86
2023/03/31 08:15:16;;;;;;;31.35;13.43;;;8.30;99.90;;;;;;5072518;28;20036;-86
2023/03/31 08:17:51;;;;;;;27.63;12.95;;;8.40;99.90;;;;;;5055060;28;20479;-85
2023/03/31 08:20:17;;;;;;;28.67;12.50;;;8.40;99.90;;;;;;5072268;28;20092;-84
2023/03/31 08:22:43;;;;;;;20.38;11.35;;;8.40;99.90;;;;;;5075781;28;20063;-85
2023/03/31 08:25:09;;;;;;;22.50;11.65;;;8.30;99.90;;;;;;5057039;28;20032;-85
2023/03/31 08:27:37;;;;;;;20.73;10.60;;;8.30;99.90;;;;;;5056219;28;20029;-86
2023/03/31 08:30:03;;;;;;;19.60;10.77;;;8.30;99.90;;;;;;5056094;28;20033;-85
2023/03/31 08:32:33;;;;;;;19.65;9.50;;;8.40;99.90;;;;;;5055631;28;20058;-84
2023/03/31 08:34:59;;;;;;;17.58;9.15;;;8.30;99.90;;;;;;5072201;28;20111;-86
2023/03/31 08:37:27;;;;;;;17.13;10.52;;;8.30;99.90;;;;;;5072849;28;20048;-85
2023/03/31 08:39:54;;;;;;;18.42;9.27;;;8.40;99.90;;;;;;5055205;28;20031;-84
2023/03/31 08:42:35;;;;;;;24.90;10.27;;;8.40;99.90;;;;;;5067246;28;20024;-83
2023/03/31 08:45:22;;;;;;;22.10;10.43;;;8.30;99.90;;;;;;5069089;28;20028;-83
2023/03/31 08:47:57;;;;;;;23.08;11.43;;;8.20;99.90;;;;;;5075837;28;20086;-85
2023/03/31 08:50:27;;;;;;;25.13;12.90;;;8.10;99.90;;;;;;5059982;28;20054;-84
2023/03/31 08:53:06;;;;;;;34.70;15.95;;;8.20;99.90;;;;;;5077365;28;20028;-86
2023/03/31 08:55:53;;;;;;;34.95;15.80;;;8.50;99.90;;;;;;5068480;28;20029;-86
2023/03/31 08:58:38;;;;;;;26.80;14.38;;;8.70;99.90;;;;;;5068692;28;20029;-85
2023/03/31 09:01:15;;;;;;;41.15;18.15;;;8.80;99.90;;;;;;5075060;28;20029;-86
2023/03/31 09:03:47;;;;;;;27.85;12.63;;;8.80;99.90;;;;;;5061392;28;20044;-83
2023/03/31 09:06:15;;;;;;;;;;;9.00;99.90;;;;;;5073298;28;20035;-84
2023/03/31 09:08:41;;;;;;;20.95;9.05;;;9.70;99.90;;;;;;5073593;28;19905;-84
2023/03/31 09:11:26;;;;;;;24.45;8.40;;;9.90;99.90;;;;;;5055365;28;20050;-84
2023/03/31 09:14:13;;;;;;;14.48;7.30;;;9.90;99.90;;;;;;5055743;28;20032;-85
2023/03/31 09:16:48;;;;;;;15.25;6.32;;;10.20;99.90;;;;;;5071999;28;20068;-85
2023/03/31 09:19:23;;;;;;;10.25;5.72;;;10.60;99.90;;;;;;5055766;28;20893;-85
2023/03/31 09:21:51;;;;;;;15.68;5.65;;;10.90;99.90;;;;;;5055176;28;20028;-85
2023/03/31 09:24:22;;;;;;;12.35;5.22;;;11.10;99.90;;;;;;5078704;28;20024;-85
2023/03/31 09:27:01;;;;;;;15.15;4.93;;;11.10;99.90;;;;;;5076640;28;20036;-85
2023/03/31 09:29:34;;;;;;;11.07;4.70;;;11.10;99.90;;;;;;5072686;28;20040;-86
2023/03/31 09:32:06;;;;;;;13.85;5.25;;;11.00;99.90;;;;;;5071877;28;20032;-85
2023/03/31 09:34:33;;;;;;;22.75;6.70;;;10.50;99.90;;;;;;5060548;28;20077;-84
2023/03/31 09:36:59;;;;;;;32.88;7.28;;;9.90;99.90;;;;;;5055927;28;20086;-84
2023/03/31 09:39:26;;;;;;;18.30;5.68;;;9.50;99.90;;;;;;5070440;28;20476;-85
2023/03/31 09:41:54;;;;;;;18.00;7.55;;;9.20;99.90;;;;;;5066742;28;20476;-85
2023/03/31 09:44:26;;;;;;;15.07;5.72;;;9.00;99.90;;;;;;5071384;28;20388;-85
2023/03/31 09:46:53;;;;;;;16.55;5.95;;;8.80;99.90;;;;;;5077436;28;20100;-85
2023/03/31 09:49:21;;;;;;;21.50;5.75;;;8.80;99.90;;;;;;5065457;28;20029;-85
2023/03/31 09:51:57;;;;;;;27.40;6.05;;;8.70;99.90;;;;;;5076297;28;20036;-85
2023/03/31 09:54:48;;;;;;;15.68;5.40;;;8.80;99.90;;;;;;5071235;28;20430;-86
2023/03/31 09:57:37;;;;;;;21.35;5.85;;;8.80;99.90;;;;;;5071193;28;20133;-86
2023/03/31 10:00:16;;;;;;;25.75;6.63;;;8.70;99.90;;;;;;5053941;28;20024;-86
2023/03/31 10:03:06;;;;;;;21.25;6.90;;;8.80;99.90;;;;;;5057415;28;20029;-86
2023/03/31 10:05:48;;;;;;;22.00;5.80;;;8.80;99.90;;;;;;5075016;28;20024;-86
2023/03/31 10:08:27;;;;;;;19.40;5.50;;;8.90;99.90;;;;;;5068287;28;20065;-85
2023/03/31 10:11:15;;;;;;;30.00;10.85;;;9.00;99.90;;;;;;5084446;28;20028;-85
2023/03/31 10:14:12;;;;;;;28.05;9.50;;;9.10;99.90;;;;;;5076853;28;20040;-85
2023/03/31 10:16:52;;;;;;;15.00;4.97;;;9.10;99.90;;;;;;5052356;28;20064;-85
2023/03/31 10:19:22;;;;;;;16.20;4.78;;;9.10;99.90;;;;;;5063850;28;20024;-86
2023/03/31 10:21:56;;;;;;;19.70;4.47;;;9.00;99.90;;;;;;5064441;28;20021;-85
2023/03/31 10:24:22;;;;;;;19.25;4.20;;;9.10;99.90;;;;;;5063134;28;20027;-85
2023/03/31 10:26:51;;;;;;;23.98;4.95;;;9.10;99.90;;;;;;5062052;28;20376;-85
2023/03/31 10:29:24;;;;;;;27.40;3.80;;;9.20;99.90;;;;;;5072919;28;20032;-85
2023/03/31 10:31:50;;;;;;;13.98;4.28;;;9.20;99.90;;;;;;5067216;28;20032;-84
2023/03/31 10:34:17;;;;;;;16.23;3.85;;;9.30;99.90;;;;;;5057325;28;20028;-85
2023/03/31 10:36:50;;;;;;;14.95;3.80;;;9.20;99.90;;;;;;5073678;28;20115;-85
2023/03/31 10:39:17;;;;;;;16.65;5.90;;;9.50;99.90;;;;;;5056749;28;20033;-85
2023/03/31 10:41:50;;;;;;;19.20;7.10;;;9.80;99.90;;;;;;5073807;28;20029;-85
2023/03/31 10:44:36;;;;;;;13.70;3.75;;;10.10;99.90;;;;;;5074295;28;20029;-85
2023/03/31 10:47:17;;;;;;;22.20;4.10;;;10.20;99.90;;;;;;5074289;28;20037;-85
2023/03/31 10:49:43;;;;;;;12.32;3.65;;;10.50;99.90;;;;;;5097442;28;20376;-86
2023/03/31 10:52:22;;;;;;;16.13;6.07;;;10.40;99.90;;;;;;5073210;28;20078;-86
2023/03/31 10:55:21;;;;;;;22.27;6.57;;;10.30;99.90;;;;;;5073895;28;20032;-86
2023/03/31 10:57:55;;;;;;;30.70;10.70;;;10.20;99.90;;;;;;5056805;28;20086;-86
2023/03/31 11:00:47;;;;;;;49.00;21.60;;;10.10;99.90;;;;;;5058917;28;20025;-86
2023/03/31 11:03:50;;;;;;;42.13;13.73;;;9.80;99.90;;;;;;5066210;28;20021;-84
2023/03/31 11:06:46;;;;;;;24.05;5.55;;;9.20;99.90;;;;;;5072862;28;20043;-85
2023/03/31 11:09:28;;;;;;;20.90;9.05;;;8.50;99.90;;;;;;5073243;28;20037;-86
2023/03/31 11:12:19;;;;;;;23.80;5.35;;;8.50;99.90;;;;;;5072853;28;20032;-83
2023/03/31 11:15:02;;;;;;;7.97;2.42;;;8.20;99.90;;;;;;5070586;28;20028;-84
2023/03/31 11:21:31;;;;;;;9.63;2.42;;;7.10;99.90;;;;;;5059306;28;20032;-85
2023/03/31 11:24:13;;;;;;;14.10;4.82;;;6.80;99.90;;;;;;5055377;28;20025;-85
2023/03/31 11:27:08;;;;;;;9.82;2.60;;;6.80;99.90;;;;;;5073949;28;20043;-85
2023/03/31 11:29:54;;;;;;;7.47;3.28;;;6.90;99.90;;;;;;5063810;28;20550;-85
2023/03/31 11:32:47;;;;;;;16.75;4.03;;;6.90;99.90;;;;;;5095184;28;20120;-85
2023/03/31 11:35:37;;;;;;;12.50;2.55;;;7.00;99.90;;;;;;5070555;28;20031;-85
2023/03/31 11:38:12;;;;;;;9.18;2.75;;;7.10;99.90;;;;;;5089114;28;20036;-86
2023/03/31 11:40:56;;;;;;;12.90;3.85;;;7.40;99.90;;;;;;5070260;28;20432;-85
2023/03/31 11:43:36;;;;;;;10.00;4.05;;;7.90;99.90;;;;;;5072391;28;20035;-86
2023/03/31 11:46:11;;;;;;;9.27;3.17;;;8.50;99.90;;;;;;5072259;28;20395;-86
2023/03/31 11:48:52;;;;;;;9.88;2.78;;;9.40;99.90;;;;;;5062299;28;20029;-84
2023/03/31 11:51:40;;;;;;;8.55;2.92;;;10.10;99.90;;;;;;5075301;28;20383;-86
2023/03/31 11:54:11;;;;;;;10.23;2.30;;;10.90;99.90;;;;;;5056091;28;20103;-85
2023/03/31 11:56:39;;;;;;;12.07;3.33;;;10.70;99.90;;;;;;5056529;28;20128;-86
2023/03/31 11:59:06;;;;;;;10.80;2.33;;;10.40;99.90;;;;;;5071663;28;20025;-85
2023/03/31 12:01:57;;;;;;;7.60;1.95;;;10.10;99.90;;;;;;5055386;28;20044;-85
2023/03/31 12:04:40;;;;;;;6.15;1.85;;;10.20;99.90;;;;;;5074006;28;20613;-86
2023/03/31 12:07:15;;;;;;;15.32;1.80;;;10.60;99.90;;;;;;5055595;28;20370;-86
2023/03/31 12:10:20;;;;;;;12.68;2.13;;;10.70;99.90;;;;;;5055809;28;20125;-85
2023/03/31 12:12:55;;;;;;;10.05;2.33;;;10.40;99.90;;;;;;5069390;28;20031;-85
2023/03/31 12:15:36;;;;;;;11.00;3.17;;;10.50;99.90;;;;;;5065735;28;20035;-85
2023/03/31 12:18:12;;;;;;;6.35;1.98;;;10.80;99.90;;;;;;5089386;28;20049;-85
2023/03/31 12:21:01;;;;;;;11.68;3.40;;;10.90;99.90;;;;;;5072902;28;20442;-86
2023/03/31 12:23:52;;;;;;;14.98;2.50;;;10.80;99.90;;;;;;5048996;28;20071;-85
2023/03/31 12:26:39;;;;;;;11.43;2.30;;;10.20;99.90;;;;;;5055033;28;20352;-85
2023/03/31 12:29:22;;;;;;;13.05;2.15;;;10.30;99.90;;;;;;5071279;28;20049;-85
2023/03/31 12:31:49;;;;;;;16.58;2.13;;;10.20;99.90;;;;;;5068902;28;20071;-85
2023/03/31 12:34:18;;;;;;;12.50;2.58;;;10.10;99.90;;;;;;5055289;28;20131;-84
2023/03/31 12:36:50;;;;;;;17.83;2.75;;;10.00;99.90;;;;;;5071663;28;20025;-85
2023/03/31 12:39:38;;;;;;;14.38;3.17;;;9.80;99.90;;;;;;5055120;28;20025;-85
2023/03/31 12:42:53;;;;;;;10.90;2.40;;;9.90;99.90;;;;;;5069869;28;20040;-85
2023/03/31 12:45:28;;;;;;;16.20;2.08;;;10.00;99.90;;;;;;5009052;28;20124;-85
2023/03/31 12:48:25;;;;;;;12.45;4.35;;;9.60;99.90;;;;;;5085124;28;20549;-85
2023/03/31 12:51:28;;;;;;;15.50;3.58;;;9.30;99.90;;;;;;5072980;28;20487;-85
2023/03/31 12:54:21;;;;;;;9.77;2.95;;;9.20;99.90;;;;;;5071316;28;20039;-85
2023/03/31 12:56:59;;;;;;;14.05;2.13;;;9.00;99.90;;;;;;5055378;28;20090;-84
2023/03/31 12:59:40;;;;;;;13.90;2.60;;;9.00;99.90;;;;;;5055438;28;20028;-85
2023/03/31 13:02:09;;;;;;;15.97;2.60;;;9.00;99.90;;;;;;5073364;28;20020;-85
2023/03/31 13:04:36;;;;;;;14.02;2.60;;;8.90;99.90;;;;;;5071684;28;20036;-84
2023/03/31 13:07:05;;;;;;;13.80;2.95;;;9.00;99.90;;;;;;5054694;28;20021;-85
2023/03/31 13:09:45;;;;;;;9.95;2.53;;;9.10;99.90;;;;;;5072245;28;20120;-84
2023/03/31 13:12:17;;;;;;;9.82;2.97;;;9.10;99.90;;;;;;5049727;28;20032;-85
2023/03/31 13:14:46;;;;;;;9.13;2.90;;;9.30;99.90;;;;;;5058692;28;20071;-85
2023/03/31 13:17:24;;;;;;;10.02;2.22;;;9.40;99.90;;;;;;5058180;28;20032;-85
2023/03/31 13:19:50;;;;;;;7.20;2.72;;;9.20;99.90;;;;;;5058132;28;20028;-85
2023/03/31 13:22:38;;;;;;;11.45;2.50;;;9.30;99.90;;;;;;5076090;28;20024;-85
2023/03/31 13:25:28;;;;;;;13.35;1.90;;;9.40;99.90;;;;;;5074717;28;20107;-85